createdAt,value
2016-06-10T15:19:55.866Z,35
2016-06-10T15:20:36.116Z,30
2016-06-10T15:22:09.169Z,35
2016-06-10T15:22:36.279Z,35
2016-06-10T15:23:34.438Z,35
2016-06-10T15:24:33.550Z,35
2016-06-10T15:25:46.194Z,30
2016-06-10T15:26:45.963Z,30
2016-06-10T15:27:34.623Z,30
2016-06-10T15:29:45.832Z,30
2016-06-10T15:32:33.200Z,30
2016-06-10T15:33:34.892Z,30
2016-06-10T15:34:46.394Z,30
2016-06-10T15:35:35.710Z,30
2016-06-10T15:36:35.197Z,30
2016-06-10T15:37:43.262Z,30
2016-06-10T15:39:46.378Z,25
2016-06-10T15:40:50.525Z,25
2016-06-10T15:41:36.213Z,25
2016-06-10T15:43:05.094Z,25
2016-06-10T15:44:54.975Z,25
2016-06-10T15:45:36.521Z,25
2016-06-10T15:47:08.935Z,25
2016-06-10T15:47:46.435Z,25
2016-06-10T15:48:33.000Z,25
2016-06-10T15:49:32.127Z,25
2016-06-10T15:50:31.131Z,25
2016-06-10T15:53:17.405Z,20
2016-06-10T15:54:30.424Z,20
2016-06-10T15:54:54.146Z,20
2016-06-10T15:55:49.959Z,20
2016-06-10T15:57:47.621Z,20
2016-06-10T15:58:49.640Z,20
2016-06-10T16:00:50.100Z,20
2016-06-10T16:01:51.761Z,20
2016-06-10T16:02:48.198Z,20
2016-06-10T16:03:49.967Z,20
2016-06-10T16:05:07.787Z,20
2016-06-10T16:06:54.699Z,20
2016-06-10T16:08:05.592Z,20
2016-06-10T16:08:47.983Z,20
2016-06-10T16:09:59.364Z,20
2016-06-10T16:10:53.320Z,20
2016-06-10T16:11:51.523Z,20
2016-06-10T16:13:08.671Z,20
2016-06-10T16:15:23.567Z,20
2016-06-10T16:15:54.241Z,20
2016-06-10T16:17:23.824Z,20
2016-06-10T16:17:52.482Z,20
2016-06-10T16:18:50.513Z,20
2016-06-10T16:19:52.691Z,20
2016-06-10T16:21:03.961Z,20
2016-06-10T16:22:06.182Z,20
2016-06-10T16:24:06.766Z,20
2016-06-10T16:24:50.735Z,20
2016-06-10T16:25:49.816Z,20
2016-06-10T16:26:50.257Z,20
2016-06-10T16:28:16.060Z,20
2016-06-10T16:28:52.844Z,20
2016-06-10T16:29:49.422Z,20
2016-06-10T16:30:49.300Z,20
2016-06-10T16:31:49.429Z,20
2016-06-10T16:32:49.948Z,20
2016-06-10T16:33:48.294Z,20
2016-06-10T16:34:52.816Z,20
2016-06-10T16:36:16.788Z,20
2016-06-10T16:36:49.491Z,20
2016-06-10T16:38:54.250Z,20
2016-06-10T16:40:07.878Z,20
2016-06-10T16:41:11.038Z,20
2016-06-10T16:41:54.025Z,20
2016-06-10T16:42:55.154Z,20
2016-06-10T16:43:53.000Z,20
2016-06-10T16:44:55.659Z,25
2016-06-10T16:46:57.227Z,25
2016-06-10T16:47:57.450Z,20
2016-06-10T16:49:52.843Z,15
2016-06-10T16:50:53.599Z,20
2016-06-10T16:51:53.602Z,20
2016-06-10T16:54:03.844Z,20
2016-06-10T16:54:53.705Z,20
2016-06-10T16:57:53.589Z,25
2016-06-10T16:58:52.995Z,25
2016-06-10T16:59:53.123Z,25
2016-06-10T17:01:53.852Z,20
2016-06-10T17:02:58.574Z,20
2016-06-10T17:03:57.514Z,15
2016-06-10T17:05:54.614Z,15
2016-06-10T17:07:09.742Z,15
2016-06-10T17:08:56.233Z,15
2016-06-10T17:09:53.170Z,15
2016-06-10T17:10:56.115Z,15
2016-06-10T17:11:54.148Z,15
2016-06-10T17:12:54.871Z,15
2016-06-10T17:14:53.249Z,15
2016-06-10T17:16:07.676Z,15
2016-06-10T17:16:53.411Z,15
2016-06-10T17:18:55.170Z,15
2016-06-10T17:20:20.876Z,15
2016-06-10T17:20:53.173Z,10
2016-06-10T17:22:17.648Z,10
2016-06-10T17:23:27.277Z,10
2016-06-10T17:24:23.576Z,10
2016-06-10T17:24:57.860Z,10
2016-06-10T17:26:07.378Z,10
2016-06-10T17:27:09.506Z,10
2016-06-10T17:27:58.323Z,10
2016-06-10T17:29:08.325Z,10
2016-06-10T17:30:08.501Z,10
2016-06-10T17:31:34.426Z,15
2016-06-10T17:32:55.198Z,15
2016-06-10T17:33:56.075Z,10
2016-06-10T17:34:57.875Z,10
2016-06-10T17:37:11.975Z,10
2016-06-10T17:37:54.615Z,10
2016-06-10T17:39:24.857Z,5
2016-06-10T17:40:19.641Z,5
2016-06-10T17:40:54.000Z,5
2016-06-10T17:42:08.255Z,5
2016-06-10T17:43:54.369Z,5
2016-06-10T17:45:17.547Z,5
2016-06-10T17:45:55.265Z,10
2016-06-10T17:47:22.241Z,10
2016-06-10T17:50:21.718Z,10
2016-06-10T17:51:09.550Z,10
2016-06-10T17:52:57.915Z,10
2016-06-10T17:54:04.074Z,10
2016-06-10T17:55:14.467Z,10
2016-06-10T17:55:56.409Z,10
2016-06-10T17:57:55.177Z,10
2016-06-10T17:59:20.980Z,10
2016-06-10T17:59:54.074Z,10
2016-06-10T18:00:59.830Z,5
2016-06-10T18:01:54.580Z,5
2016-06-10T18:02:54.505Z,5
2016-06-10T18:04:20.027Z,5
2016-06-10T18:05:20.248Z,5
2016-06-10T18:06:17.580Z,5
2016-06-10T18:06:53.752Z,5
2016-06-10T18:07:53.301Z,5
2016-06-10T18:08:53.696Z,5
2016-06-10T18:10:21.342Z,5
2016-06-10T18:11:53.705Z,5
2016-06-10T18:13:08.930Z,5
2016-06-10T18:13:53.180Z,5
2016-06-10T18:14:53.590Z,5
2016-06-10T18:16:53.845Z,5
2016-06-10T18:17:57.977Z,5
2016-06-10T18:19:12.651Z,5
2016-06-10T18:20:09.561Z,5
2016-06-10T18:21:10.954Z,5
2016-06-10T18:21:55.594Z,5
2016-06-10T18:23:24.211Z,5
2016-06-10T18:24:08.635Z,5
2016-06-10T18:25:20.717Z,5
2016-06-10T18:26:55.188Z,5
2016-06-10T18:27:53.582Z,5
2016-06-10T18:29:06.479Z,5
2016-06-10T18:31:01.547Z,5
2016-06-10T18:31:57.301Z,5
2016-06-10T18:33:03.476Z,5
2016-06-10T18:33:56.632Z,5
2016-06-10T18:36:29.671Z,5
2016-06-10T18:37:32.660Z,5
2016-06-10T18:38:24.272Z,5
2016-06-10T18:39:00.931Z,5
2016-06-10T18:40:18.809Z,5
2016-06-10T18:41:11.594Z,5
2016-06-10T18:42:17.128Z,0
2016-06-10T18:44:26.104Z,0
2016-06-10T18:45:36.841Z,0
2016-06-10T18:46:10.421Z,0
2016-06-10T18:48:06.708Z,0
2016-06-10T18:49:14.259Z,0
2016-06-10T18:50:05.919Z,0
2016-06-10T18:51:10.422Z,0
2016-06-10T18:52:06.643Z,0
2016-06-10T18:53:06.349Z,0
2016-06-10T18:54:18.385Z,0
2016-06-10T18:54:59.371Z,0
2016-06-10T18:55:59.124Z,0
2016-06-10T18:57:27.971Z,0
2016-06-10T18:57:59.381Z,0
2016-06-10T18:59:16.414Z,0
2016-06-10T19:00:56.590Z,0
2016-06-10T19:03:10.911Z,0
2016-06-10T19:05:25.746Z,0
2016-06-10T19:05:55.871Z,0
2016-06-10T19:06:56.077Z,0
2016-06-10T19:07:56.486Z,0
2016-06-10T19:08:57.911Z,0
2016-06-10T19:09:59.495Z,0
2016-06-10T19:11:00.576Z,0
2016-06-10T19:12:58.705Z,0
2016-06-10T19:13:55.270Z,0
2016-06-10T19:14:55.820Z,0
2016-06-10T19:15:55.417Z,0
2016-06-10T19:17:11.798Z,0
2016-06-10T19:17:55.502Z,0
2016-06-10T19:19:11.711Z,0
2016-06-10T19:19:56.101Z,0
2016-06-10T19:21:01.826Z,0
2016-06-10T19:21:55.654Z,0
2016-06-10T19:22:55.438Z,0
2016-06-10T19:23:58.473Z,0
2016-06-10T19:25:56.417Z,0
2016-06-10T19:26:55.358Z,0
2016-06-10T19:27:56.657Z,0
2016-06-10T19:28:55.581Z,0
2016-06-10T19:29:59.367Z,0
2016-06-10T19:30:55.526Z,0
2016-06-10T19:31:58.513Z,0
2016-06-10T19:32:55.251Z,0
2016-06-10T19:34:09.569Z,0
2016-06-10T19:34:58.850Z,0
2016-06-10T19:35:54.947Z,0
2016-06-10T19:36:55.341Z,0
2016-06-10T19:37:57.781Z,0
2016-06-10T19:38:56.426Z,0
2016-06-10T19:39:58.037Z,0
2016-06-10T19:40:54.369Z,0
2016-06-10T19:41:54.918Z,0
2016-06-10T19:42:56.171Z,0
2016-06-10T19:44:08.850Z,0
2016-06-10T19:45:17.102Z,0
2016-06-10T19:46:04.575Z,0
2016-06-10T19:46:58.903Z,0
2016-06-10T19:48:08.472Z,0
2016-06-10T19:48:56.003Z,0
2016-06-10T19:50:08.712Z,0
2016-06-10T19:51:26.715Z,0
2016-06-10T19:52:08.641Z,0
2016-06-10T19:52:58.531Z,0
2016-06-10T19:54:12.850Z,0
2016-06-10T19:54:56.975Z,0
2016-06-10T19:56:55.386Z,0
2016-06-10T19:58:31.330Z,0
2016-06-10T19:59:21.756Z,0
2016-06-10T19:59:58.537Z,0
2016-06-10T20:00:54.914Z,0
2016-06-10T20:01:58.574Z,0
2016-06-10T20:02:58.781Z,0
2016-06-10T20:04:12.959Z,0
2016-06-10T20:05:22.524Z,0
2016-06-10T20:06:08.308Z,0
2016-06-10T20:06:54.683Z,0
2016-06-10T20:07:53.452Z,0
2016-06-10T20:08:54.298Z,0
2016-06-10T20:09:53.380Z,0
2016-06-10T20:11:57.918Z,0
2016-06-10T20:12:56.092Z,0
2016-06-10T20:13:55.517Z,0
2016-06-10T20:14:57.489Z,0
2016-06-10T20:15:53.914Z,0
2016-06-10T20:16:54.808Z,0
2016-06-10T20:17:55.187Z,0
2016-06-10T20:18:58.642Z,0
2016-06-10T20:19:54.286Z,0
2016-06-10T20:20:52.929Z,0
2016-06-10T20:21:57.699Z,0
2016-06-10T20:22:54.452Z,0
2016-06-10T20:23:55.141Z,0
2016-06-10T20:25:07.569Z,0
2016-06-10T20:25:53.866Z,0
2016-06-10T20:27:54.232Z,0
2016-06-10T20:29:52.973Z,0
2016-06-10T20:30:54.226Z,0
2016-06-10T20:31:52.479Z,0
2016-06-10T20:32:53.545Z,0
2016-06-10T20:33:53.172Z,0
2016-06-10T20:34:52.739Z,0
2016-06-10T20:35:52.553Z,0
2016-06-10T20:36:53.822Z,0
2016-06-10T20:37:53.684Z,0
2016-06-10T20:38:52.282Z,0
2016-06-10T20:39:53.504Z,0
2016-06-10T20:40:52.194Z,0
2016-06-10T20:41:57.259Z,0
2016-06-10T20:42:53.950Z,0
2016-06-10T20:43:55.375Z,0
2016-06-10T20:45:27.006Z,0
2016-06-10T20:45:54.631Z,0
2016-06-10T20:46:56.478Z,0
2016-06-10T20:48:07.953Z,0
2016-06-10T20:48:54.266Z,0
2016-06-10T20:49:53.127Z,0
2016-06-10T20:50:53.922Z,0
2016-06-10T20:51:52.012Z,0
2016-06-10T20:53:05.910Z,0
2016-06-10T20:53:52.067Z,0
2016-06-10T20:54:52.656Z,0
2016-06-10T20:55:55.793Z,0
2016-06-10T20:56:53.560Z,0
2016-06-10T20:57:54.405Z,0
2016-06-10T20:58:52.735Z,0
2016-06-10T21:00:10.311Z,0
2016-06-10T21:00:53.014Z,0
2016-06-10T21:01:54.037Z,0
2016-06-10T21:03:53.648Z,0
2016-06-10T21:04:52.295Z,0
2016-06-10T21:05:52.302Z,0
2016-06-10T21:06:52.041Z,0
2016-06-10T21:08:10.333Z,0
2016-06-10T21:08:56.989Z,0
2016-06-10T21:09:53.604Z,0
2016-06-10T21:10:53.530Z,0
2016-06-10T21:12:07.381Z,0
2016-06-10T21:13:07.213Z,0
2016-06-10T21:13:54.182Z,0
2016-06-10T21:14:53.623Z,0
2016-06-10T21:15:53.032Z,0
2016-06-10T21:16:53.255Z,0
2016-06-10T21:17:53.070Z,0
2016-06-10T21:18:53.309Z,0
2016-06-10T21:19:52.563Z,0
2016-06-10T21:20:52.831Z,0
2016-06-10T21:21:53.678Z,0
2016-06-10T21:22:52.884Z,0
2016-06-10T21:23:55.668Z,0
2016-06-10T21:25:52.737Z,0
2016-06-10T21:27:09.587Z,0
2016-06-10T21:28:09.980Z,0
2016-06-10T21:28:57.871Z,0
2016-06-10T21:29:55.781Z,0
2016-06-10T21:30:54.127Z,0
2016-06-10T21:31:54.365Z,0
2016-06-10T21:32:54.945Z,0
2016-06-10T21:34:21.062Z,0
2016-06-10T21:34:53.405Z,0
2016-06-10T21:36:53.599Z,0
2016-06-10T21:37:54.524Z,0
2016-06-10T21:38:54.199Z,0
2016-06-10T21:39:53.390Z,0
2016-06-10T21:40:53.689Z,0
2016-06-10T21:41:55.787Z,0
2016-06-10T21:42:56.789Z,0
2016-06-10T21:44:07.498Z,0
2016-06-10T21:44:53.842Z,0
2016-06-10T21:45:53.221Z,0
2016-06-10T21:46:53.177Z,0
2016-06-10T21:47:53.726Z,0
2016-06-10T21:48:52.542Z,0
2016-06-10T21:49:53.326Z,0
2016-06-10T21:51:52.770Z,0
2016-06-10T21:53:06.432Z,0
2016-06-10T21:54:10.451Z,0
2016-06-10T21:54:53.482Z,0
2016-06-10T21:55:53.142Z,0
2016-06-10T21:56:52.958Z,0
2016-06-10T21:57:52.116Z,0
2016-06-10T21:59:53.700Z,0
2016-06-10T22:00:52.064Z,0
2016-06-10T22:02:19.679Z,0
2016-06-10T22:02:53.163Z,0
2016-06-10T22:03:52.354Z,0
2016-06-10T22:04:52.716Z,0
2016-06-10T22:05:54.189Z,0
2016-06-10T22:06:52.285Z,0
2016-06-10T22:07:53.757Z,0
2016-06-10T22:08:51.728Z,0
2016-06-10T22:09:52.295Z,0
2016-06-10T22:10:51.937Z,0
2016-06-10T22:12:05.865Z,0
2016-06-10T22:13:05.572Z,0
2016-06-10T22:14:52.528Z,0
2016-06-10T22:15:52.063Z,0
2016-06-10T22:16:51.597Z,0
2016-06-10T22:17:51.069Z,0
2016-06-10T22:19:08.278Z,0
2016-06-10T22:19:51.684Z,0
2016-06-10T22:20:52.078Z,0
2016-06-10T22:21:51.097Z,0
2016-06-10T22:23:05.427Z,0
2016-06-10T22:23:52.977Z,0
2016-06-10T22:24:52.856Z,0
2016-06-10T22:25:52.141Z,0
2016-06-10T22:27:51.911Z,0
2016-06-10T22:29:06.181Z,0
2016-06-10T22:30:10.796Z,0
2016-06-10T22:30:51.374Z,0
2016-06-10T22:31:51.830Z,0
2016-06-10T22:32:53.131Z,0
2016-06-10T22:33:52.821Z,0
2016-06-10T22:35:01.668Z,0
2016-06-10T22:35:52.312Z,0
2016-06-10T22:36:50.768Z,0
2016-06-10T22:37:54.428Z,0
2016-06-10T22:38:53.258Z,0
2016-06-10T22:39:50.074Z,0
2016-06-10T22:41:50.268Z,0
2016-06-10T22:42:50.004Z,0
2016-06-10T22:44:06.789Z,0
2016-06-10T22:44:54.152Z,0
2016-06-10T22:45:55.186Z,0
2016-06-10T22:46:52.455Z,0
2016-06-10T22:48:09.117Z,0
2016-06-10T22:48:52.570Z,0
2016-06-10T22:49:51.839Z,0
2016-06-10T22:50:52.810Z,0
2016-06-10T22:51:53.127Z,0
2016-06-10T22:52:52.160Z,0
2016-06-10T22:53:52.008Z,0
2016-06-10T22:54:52.636Z,0
2016-06-10T22:56:05.358Z,0
2016-06-10T22:58:05.801Z,0
2016-06-10T22:59:06.258Z,0
2016-06-10T23:00:06.323Z,0
2016-06-10T23:00:52.091Z,0
2016-06-10T23:01:52.001Z,0
2016-06-10T23:02:51.848Z,0
2016-06-10T23:03:51.304Z,0
2016-06-10T23:04:51.556Z,0
2016-06-10T23:06:05.888Z,0
2016-06-10T23:06:54.876Z,0
2016-06-10T23:07:50.941Z,0
2016-06-10T23:08:51.850Z,0
2016-06-10T23:09:51.541Z,0
2016-06-10T23:10:58.513Z,0
2016-06-10T23:11:51.860Z,0
2016-06-10T23:13:05.160Z,0
2016-06-10T23:13:51.273Z,0
2016-06-10T23:14:51.822Z,0
2016-06-10T23:15:49.497Z,0
2016-06-10T23:16:49.297Z,0
2016-06-10T23:17:53.957Z,0
2016-06-10T23:18:50.021Z,0
2016-06-10T23:19:51.024Z,0
2016-06-10T23:20:49.497Z,0
2016-06-10T23:21:51.344Z,0
2016-06-10T23:22:49.081Z,0
2016-06-10T23:23:50.959Z,0
2016-06-10T23:24:55.493Z,0
2016-06-10T23:25:51.887Z,0
2016-06-10T23:27:04.703Z,0
2016-06-10T23:27:49.502Z,0
2016-06-10T23:28:49.428Z,0
2016-06-10T23:29:49.588Z,0
2016-06-10T23:30:51.293Z,0
2016-06-10T23:31:49.077Z,0
2016-06-10T23:32:50.878Z,0
2016-06-10T23:33:48.975Z,0
2016-06-10T23:34:49.103Z,0
2016-06-10T23:35:49.214Z,0
2016-06-10T23:36:50.390Z,0
2016-06-10T23:37:49.487Z,0
2016-06-10T23:38:50.833Z,0
2016-06-10T23:39:50.774Z,0
2016-06-10T23:40:50.511Z,0
2016-06-10T23:42:03.795Z,0
2016-06-10T23:42:52.753Z,0
2016-06-10T23:43:52.037Z,0
2016-06-10T23:44:50.242Z,0
2016-06-10T23:45:50.667Z,0
2016-06-10T23:46:50.515Z,0
2016-06-10T23:47:50.643Z,0
2016-06-10T23:48:49.521Z,0
2016-06-10T23:49:50.710Z,0
2016-06-10T23:50:49.948Z,0
2016-06-10T23:52:03.530Z,0
2016-06-10T23:52:49.626Z,0
2016-06-10T23:53:54.567Z,0
2016-06-10T23:55:21.479Z,0
2016-06-10T23:55:51.151Z,0
2016-06-10T23:56:52.201Z,0
2016-06-10T23:57:49.799Z,0
2016-06-10T23:58:48.926Z,0
2016-06-10T23:59:49.350Z,0
